Aviation Digital Data Service (ADDS)

Output produced by METARs form (2213 UTC 01 December 2021)
found at http://aviationweather.gov/metar/data/
 
KLFK 012153Z AUTO 22004KT 10SM CLR 24/15 A3008 RMK AO2 SLP183 T02390150
KLFK 011720Z 0118/0218 20006KT P6SM SKC 
     FM020000 21004KT P6SM SKC 
     FM020800 VRB03KT 4SM BR SKC 
     FM021000 VRB03KT 1/2SM FG BKN003 
     FM021500 20004KT P6SM SKC